Time;durP1;ratioP1;P1;durP2;ratioP2;P2;SDS_P1;SDS_P2;PMS_P1;PMS_P2;Temp;Humidity;BMP_temperature;BMP_pressure;BME280_temperature;BME280_humidity;BME280_pressure;Samples;Min_cycle;Max_cycle;Signal;HPM_P1;HPM_P2
2023/07/13 00:00:32;;;;;;;5.55;1.88;;;17.90;99.90;;;;;;12516461;28;20122;-35
2023/07/13 00:06:35;;;;;;;5.88;2.00;;;17.80;99.90;;;;;;12536075;28;20049;-35
2023/07/13 00:12:38;;;;;;;4.70;1.75;;;17.70;99.90;;;;;;12528930;28;20056;-35
2023/07/13 00:18:43;;;;;;;4.93;1.80;;;17.60;99.90;;;;;;12527723;28;20052;-35
2023/07/13 00:24:45;;;;;;;4.63;1.83;;;17.40;99.90;;;;;;12529618;28;20417;-35
2023/07/13 00:30:47;;;;;;;6.25;2.00;;;17.50;99.90;;;;;;12515063;28;20123;-35
2023/07/13 00:36:49;;;;;;;6.03;2.22;;;17.40;99.90;;;;;;12527530;28;20628;-35
2023/07/13 00:42:53;;;;;;;6.45;1.90;;;17.20;99.90;;;;;;12533924;28;20053;-34
2023/07/13 00:48:59;;;;;;;7.13;1.58;;;17.30;99.90;;;;;;12521210;28;20064;-35
2023/07/13 00:55:01;;;;;;;10.25;2.00;;;17.10;99.90;;;;;;12509174;28;20560;-35
2023/07/13 01:01:03;;;;;;;7.32;2.28;;;17.20;99.90;;;;;;12528186;28;20383;-35
2023/07/13 01:07:07;;;;;;;5.25;1.63;;;17.30;99.90;;;;;;12529965;28;20045;-33
2023/07/13 01:13:10;;;;;;;6.45;2.20;;;17.20;99.90;;;;;;12518599;28;20067;-35
2023/07/13 01:19:35;;;;;;;4.47;1.80;;;17.10;99.90;;;;;;12514242;28;20048;-35
2023/07/13 01:25:38;;;;;;;8.80;2.25;;;17.20;99.90;;;;;;12522790;28;20493;-37
2023/07/13 01:31:40;;;;;;;5.03;2.13;;;17.30;99.90;;;;;;12528317;28;20060;-35
2023/07/13 01:37:44;;;;;;;5.88;2.08;;;17.30;99.90;;;;;;12521969;28;20686;-35
2023/07/13 01:43:46;;;;;;;8.07;1.70;;;17.30;99.90;;;;;;12511735;28;20052;-35
2023/07/13 01:49:49;;;;;;;8.40;1.90;;;17.20;99.90;;;;;;12519016;28;20041;-35
2023/07/13 01:55:51;;;;;;;8.80;1.83;;;17.20;99.90;;;;;;12516561;28;20049;-35
2023/07/13 02:01:53;;;;;;;10.02;2.00;;;17.20;99.90;;;;;;12536299;28;20203;-35
2023/07/13 02:07:55;;;;;;;6.35;1.95;;;17.30;99.90;;;;;;12521194;28;20053;-35
2023/07/13 02:13:57;;;;;;;8.75;1.88;;;17.20;99.90;;;;;;12533172;28;20041;-35
2023/07/13 02:19:59;;;;;;;12.07;1.95;;;17.10;99.90;;;;;;12526852;28;20565;-35
2023/07/13 02:26:03;;;;;;;7.78;1.60;;;17.20;99.90;;;;;;12525642;28;20061;-34
2023/07/13 02:32:06;;;;;;;4.03;1.60;;;17.20;99.90;;;;;;12519717;28;20486;-35
2023/07/13 02:38:08;;;;;;;5.88;1.98;;;17.10;99.90;;;;;;12514376;28;20132;-35
2023/07/13 02:44:13;;;;;;;3.88;1.90;;;17.20;99.90;;;;;;12523487;28;20041;-35
2023/07/13 02:50:15;;;;;;;9.45;1.83;;;17.30;99.90;;;;;;12517417;28;20041;-35
2023/07/13 02:56:22;;;;;;;5.10;1.75;;;17.30;99.90;;;;;;12535752;28;20037;-36
2023/07/13 03:02:24;;;;;;;4.82;1.70;;;17.20;99.90;;;;;;12528834;28;20052;-35
2023/07/13 03:08:26;;;;;;;8.98;2.55;;;17.10;99.90;;;;;;12539349;28;20055;-35
2023/07/13 03:14:28;;;;;;;10.15;2.13;;;16.90;99.90;;;;;;12538589;28;20079;-35
2023/07/13 03:20:33;;;;;;;7.05;2.05;;;16.80;99.90;;;;;;12534701;28;20073;-35
2023/07/13 03:26:35;;;;;;;5.05;2.00;;;16.60;99.90;;;;;;12520920;28;20392;-35
2023/07/13 03:32:37;;;;;;;6.05;1.80;;;16.70;99.90;;;;;;12534813;28;20061;-35
2023/07/13 03:38:39;;;;;;;6.93;1.95;;;16.70;99.90;;;;;;12530248;28;20497;-36
2023/07/13 03:44:42;;;;;;;9.05;2.00;;;16.60;99.90;;;;;;12521592;28;20511;-35
2023/07/13 03:50:44;;;;;;;8.75;2.60;;;16.50;99.90;;;;;;12515583;28;20142;-35
2023/07/13 03:56:46;;;;;;;4.85;2.25;;;16.30;99.90;;;;;;12536929;28;20049;-34
2023/07/13 04:02:49;;;;;;;11.63;2.63;;;16.20;99.90;;;;;;12532082;28;20409;-34
2023/07/13 04:08:54;;;;;;;5.90;1.97;;;16.40;99.90;;;;;;12534303;28;20128;-35
2023/07/13 04:14:56;;;;;;;6.75;1.95;;;16.80;99.90;;;;;;12529676;28;20107;-36
2023/07/13 04:20:58;;;;;;;7.72;1.80;;;17.90;99.90;;;;;;12533437;28;20208;-36
2023/07/13 04:27:01;;;;;;;11.27;2.40;;;18.70;99.90;;;;;;12529050;28;20527;-36
2023/07/13 04:33:04;;;;;;;8.05;1.98;;;18.80;99.90;;;;;;12524373;28;20061;-35
2023/07/13 04:39:06;;;;;;;9.73;2.33;;;18.90;99.90;;;;;;12519094;28;20136;-36
2023/07/13 04:45:10;;;;;;;8.15;2.47;;;19.20;99.90;;;;;;12518770;28;20060;-35
2023/07/13 04:51:12;;;;;;;9.37;2.30;;;19.30;99.90;;;;;;12511850;28;20071;-36
2023/07/13 04:57:13;;;;;;;10.50;3.40;;;18.50;99.90;;;;;;12524512;28;20403;-36
2023/07/13 05:03:15;;;;;;;6.03;2.40;;;17.80;99.90;;;;;;12532916;28;20041;-36
2023/07/13 05:09:18;;;;;;;6.82;1.92;;;17.20;99.90;;;;;;12525253;28;20045;-35
2023/07/13 05:15:22;;;;;;;6.30;2.10;;;17.40;99.90;;;;;;12525751;28;20049;-36
2023/07/13 05:21:24;;;;;;;8.32;2.40;;;17.40;99.90;;;;;;12511776;28;20041;-35
2023/07/13 05:27:26;;;;;;;6.15;2.20;;;17.20;99.90;;;;;;12523978;28;20048;-36
2023/07/13 05:33:28;;;;;;;9.38;2.28;;;17.10;99.90;;;;;;12523436;28;20094;-36
2023/07/13 05:39:30;;;;;;;15.23;2.70;;;17.10;99.90;;;;;;12527332;28;20084;-35
2023/07/13 05:45:32;;;;;;;8.68;2.03;;;17.00;99.90;;;;;;12519596;28;20045;-36
2023/07/13 05:51:34;;;;;;;10.68;2.28;;;16.90;99.90;;;;;;12519193;28;20048;-35
2023/07/13 05:57:36;;;;;;;5.22;1.85;;;16.90;99.90;;;;;;12499390;28;20044;-35
2023/07/13 06:03:38;;;;;;;11.77;2.20;;;17.00;99.90;;;;;;12520472;28;20128;-35
2023/07/13 06:09:40;;;;;;;5.88;2.00;;;17.00;99.90;;;;;;12525994;28;20052;-35
2023/07/13 06:15:42;;;;;;;9.52;1.90;;;16.90;99.90;;;;;;12526323;28;20045;-36
2023/07/13 06:21:44;;;;;;;7.05;1.65;;;17.10;99.90;;;;;;12529316;28;20056;-35
2023/07/13 06:27:45;;;;;;;5.53;1.60;;;17.10;99.90;;;;;;12519475;28;20049;-35
2023/07/13 06:33:47;;;;;;;6.82;2.13;;;17.40;99.90;;;;;;12518513;28;20152;-35
2023/07/13 06:39:49;;;;;;;13.00;2.38;;;17.70;99.90;;;;;;12522964;28;20041;-35
2023/07/13 06:45:54;;;;;;;9.05;2.00;;;17.70;99.90;;;;;;12510769;28;20053;-35
2023/07/13 06:51:56;;;;;;;10.23;2.42;;;17.70;99.90;;;;;;12507949;28;20079;-36
2023/07/13 06:57:58;;;;;;;9.90;2.05;;;17.90;99.90;;;;;;12511822;28;20053;-35
2023/07/13 07:04:00;;;;;;;8.23;2.30;;;18.20;99.90;;;;;;12518923;28;20395;-35
2023/07/13 07:10:03;;;;;;;8.88;2.50;;;18.10;99.90;;;;;;12521403;28;20048;-35
2023/07/13 07:16:04;;;;;;;8.20;2.30;;;17.80;99.90;;;;;;12517322;28;20053;-34
2023/07/13 07:22:06;;;;;;;12.23;2.75;;;18.00;99.90;;;;;;12527265;28;20401;-36
2023/07/13 07:28:08;;;;;;;9.18;2.47;;;18.20;99.90;;;;;;12520648;28;20509;-36
2023/07/13 07:34:13;;;;;;;8.60;2.28;;;18.30;99.90;;;;;;12519251;28;20041;-36
2023/07/13 07:40:15;;;;;;;9.50;2.40;;;18.50;99.90;;;;;;12526794;28;20041;-35
2023/07/13 07:46:20;;;;;;;15.63;2.58;;;18.60;99.90;;;;;;12517003;28;20489;-36
2023/07/13 07:52:22;;;;;;;10.30;2.33;;;18.80;99.90;;;;;;12533677;28;20045;-35
2023/07/13 07:58:24;;;;;;;12.68;2.88;;;18.30;99.90;;;;;;12524092;28;20045;-35
2023/07/13 08:04:28;;;;;;;8.75;2.38;;;18.00;99.90;;;;;;12535377;28;20124;-35
2023/07/13 08:10:36;;;;;;;10.68;2.75;;;18.00;99.90;;;;;;12541585;28;20048;-36
2023/07/13 08:16:37;;;;;;;8.20;2.38;;;18.20;99.90;;;;;;12530620;28;20150;-36
2023/07/13 08:22:39;;;;;;;10.02;2.50;;;18.60;99.90;;;;;;12531168;28;20045;-35
2023/07/13 08:28:42;;;;;;;11.43;2.63;;;18.60;99.90;;;;;;12538240;28;20052;-36
2023/07/13 08:34:44;;;;;;;10.30;2.45;;;18.40;99.90;;;;;;12532975;28;20064;-35
2023/07/13 08:40:52;;;;;;;10.70;2.22;;;18.50;99.90;;;;;;12530286;28;20497;-35
2023/07/13 08:46:56;;;;;;;9.88;2.38;;;18.60;99.90;;;;;;12519819;28;20060;-36
2023/07/13 08:53:00;;;;;;;8.38;2.00;;;19.00;99.90;;;;;;12516499;28;20124;-35
2023/07/13 08:59:13;;;;;;;;;;;19.30;99.90;;;;;;12528894;28;20512;-36
2023/07/13 09:05:18;;;;;;;8.18;1.90;;;19.50;99.90;;;;;;12525743;28;19924;-36
2023/07/13 09:11:38;;;;;;;8.00;1.60;;;19.60;99.90;;;;;;12524043;28;20052;-36
2023/07/13 09:17:48;;;;;;;8.75;2.45;;;19.50;99.90;;;;;;12525199;28;20447;-35
2023/07/13 09:23:58;;;;;;;6.07;1.98;;;19.60;99.90;;;;;;12515214;28;20053;-36
2023/07/13 09:30:17;;;;;;;6.53;2.08;;;19.90;99.90;;;;;;12520622;28;20497;-36
2023/07/13 09:36:24;;;;;;;4.30;1.42;;;20.20;99.90;;;;;;12508662;28;20056;-35
2023/07/13 09:42:26;;;;;;;6.97;1.83;;;20.40;99.90;;;;;;12526683;28;20041;-36
2023/07/13 09:48:36;;;;;;;9.68;1.73;;;20.00;99.90;;;;;;12529547;28;20049;-36
2023/07/13 09:54:39;;;;;;;5.63;1.77;;;20.50;99.90;;;;;;12522149;28;20059;-36
2023/07/13 10:00:47;;;;;;;4.65;1.55;;;20.30;99.90;;;;;;12527312;28;20053;-36
2023/07/13 10:07:05;;;;;;;4.28;1.50;;;20.60;99.90;;;;;;12522440;28;20080;-36
2023/07/13 10:13:36;;;;;;;6.75;1.70;;;21.20;99.90;;;;;;12529903;28;20101;-35
2023/07/13 10:19:39;;;;;;;3.67;1.50;;;21.90;99.90;;;;;;12533363;28;20056;-36
2023/07/13 10:25:45;;;;;;;5.70;1.80;;;22.00;99.90;;;;;;12516834;28;20136;-36
2023/07/13 10:31:47;;;;;;;6.38;1.65;;;22.30;99.90;;;;;;12529233;28;20114;-36
2023/07/13 10:38:01;;;;;;;5.57;1.65;;;22.50;99.90;;;;;;12519692;28;20063;-36
2023/07/13 10:44:09;;;;;;;5.70;1.45;;;22.80;99.90;;;;;;12514239;28;20079;-36
2023/07/13 10:50:21;;;;;;;3.42;1.48;;;22.20;99.90;;;;;;12498232;28;20079;-36
2023/07/13 10:56:29;;;;;;;10.07;1.55;;;21.50;99.90;;;;;;12516346;28;20045;-36
2023/07/13 11:02:34;;;;;;;6.68;1.67;;;21.60;99.90;;;;;;12517182;28;20057;-36
2023/07/13 11:08:58;;;;;;;5.15;1.85;;;21.30;99.90;;;;;;12529120;28;20131;-35
2023/07/13 11:15:02;;;;;;;7.25;1.60;;;21.10;99.90;;;;;;12532500;28;20068;-35
2023/07/13 11:21:22;;;;;;;6.80;2.03;;;21.90;99.90;;;;;;12523772;28;20049;-36
2023/07/13 11:27:37;;;;;;;6.00;1.80;;;22.20;99.90;;;;;;12536931;28;20053;-36
2023/07/13 11:33:39;;;;;;;8.02;1.83;;;22.80;99.90;;;;;;12518406;28;20064;-36
2023/07/13 11:39:43;;;;;;;8.57;1.80;;;23.30;99.90;;;;;;12520376;28;20128;-36
2023/07/13 11:45:49;;;;;;;8.43;1.88;;;22.30;99.90;;;;;;12518080;28;20065;-35
2023/07/13 11:51:56;;;;;;;8.00;2.00;;;21.70;99.90;;;;;;12524878;28;20182;-35
2023/07/13 11:58:00;;;;;;;4.97;1.60;;;21.40;99.90;;;;;;12524533;28;20480;-36
2023/07/13 12:04:03;;;;;;;7.82;2.28;;;22.50;99.90;;;;;;12535983;28;20048;-35
2023/07/13 12:10:09;;;;;;;7.30;1.75;;;22.50;99.90;;;;;;12520697;28;20052;-36
2023/07/13 12:16:26;;;;;;;7.05;2.10;;;22.60;99.90;;;;;;12488070;28;20041;-36
2023/07/13 12:22:28;;;;;;;7.43;2.80;;;22.10;99.90;;;;;;12508685;28;20045;-36
2023/07/13 12:28:30;;;;;;;5.38;2.70;;;22.10;99.90;;;;;;12532752;28;20175;-36
2023/07/13 12:34:32;;;;;;;6.97;2.83;;;22.60;99.90;;;;;;12515885;28;20079;-36
2023/07/13 12:40:34;;;;;;;5.57;2.15;;;22.90;99.90;;;;;;12517360;28;20189;-35
2023/07/13 12:46:38;;;;;;;4.50;2.10;;;23.00;99.90;;;;;;12516756;28;20473;-36
2023/07/13 12:52:44;;;;;;;6.35;2.17;;;22.70;99.90;;;;;;12527587;28;20076;-36
2023/07/13 12:58:48;;;;;;;6.18;2.70;;;22.10;99.90;;;;;;12532876;28;20045;-35
2023/07/13 13:04:50;;;;;;;5.88;2.78;;;21.90;99.90;;;;;;12524074;28;20280;-35
2023/07/13 13:10:52;;;;;;;6.47;2.40;;;21.60;99.90;;;;;;12527589;28;20049;-35
2023/07/13 13:16:54;;;;;;;5.90;1.83;;;21.80;99.90;;;;;;12522680;28;20520;-35
2023/07/13 13:22:56;;;;;;;4.15;1.60;;;22.00;99.90;;;;;;12519514;28;20080;-35
2023/07/13 13:28:59;;;;;;;4.32;1.60;;;22.20;99.90;;;;;;12528168;28;20053;-36
2023/07/13 13:35:04;;;;;;;3.72;1.40;;;22.40;99.90;;;;;;12524955;28;20085;-36
2023/07/13 13:41:07;;;;;;;1.73;1.00;;;22.30;99.90;;;;;;12529691;28;20056;-36
2023/07/13 13:47:30;;;;;;;3.80;1.05;;;20.20;99.90;;;;;;12528045;28;20206;-35
2023/07/13 13:53:32;;;;;;;5.65;1.20;;;18.60;99.90;;;;;;12518793;28;20045;-35
2023/07/13 13:59:39;;;;;;;3.45;1.50;;;17.80;99.90;;;;;;12514876;28;20099;-36
2023/07/13 14:05:41;;;;;;;2.97;1.60;;;17.50;99.90;;;;;;12524716;28;20045;-34
2023/07/13 14:11:43;;;;;;;6.15;1.83;;;16.90;99.90;;;;;;12518223;28;20433;-35
2023/07/13 14:17:51;;;;;;;4.03;1.60;;;16.80;99.90;;;;;;12526592;28;20140;-35
2023/07/13 14:23:53;;;;;;;3.58;1.75;;;16.50;99.90;;;;;;12522287;28;20052;-35
2023/07/13 14:29:54;;;;;;;4.68;1.60;;;16.80;99.90;;;;;;12529506;28;20144;-35
2023/07/13 14:35:56;;;;;;;4.53;1.50;;;17.10;99.90;;;;;;12521612;28;20053;-35
2023/07/13 14:41:59;;;;;;;4.93;1.80;;;17.60;99.90;;;;;;12531444;28;20508;-35
2023/07/13 14:48:03;;;;;;;5.90;1.40;;;17.90;99.90;;;;;;12536244;28;20076;-35
2023/07/13 14:54:08;;;;;;;4.25;1.50;;;18.00;99.90;;;;;;12540795;28;20033;-36
2023/07/13 15:00:17;;;;;;;4.30;2.00;;;17.80;99.90;;;;;;12545122;28;20091;-35
2023/07/13 15:06:20;;;;;;;2.85;1.80;;;17.60;99.90;;;;;;12525328;28;20052;-35
2023/07/13 15:12:22;;;;;;;2.45;1.20;;;17.10;99.90;;;;;;12537915;28;20048;-35
2023/07/13 15:18:25;;;;;;;2.90;1.40;;;16.60;99.90;;;;;;12532622;28;20056;-35
2023/07/13 15:24:29;;;;;;;3.35;1.40;;;16.60;99.90;;;;;;12531800;28;20128;-35
2023/07/13 15:30:38;;;;;;;4.00;2.03;;;16.40;99.90;;;;;;12536457;28;20053;-35
2023/07/13 15:36:40;;;;;;;4.07;2.17;;;16.80;99.90;;;;;;12520843;28;20092;-35
2023/07/13 15:42:44;;;;;;;6.53;2.83;;;16.80;99.90;;;;;;12526559;28;20051;-35
2023/07/13 15:48:47;;;;;;;4.32;2.67;;;16.90;99.90;;;;;;12527548;28;20045;-35
2023/07/13 15:54:50;;;;;;;8.75;3.20;;;16.70;99.90;;;;;;12529728;28;20037;-35
2023/07/13 16:00:53;;;;;;;4.25;2.75;;;16.60;99.90;;;;;;12522776;28;20064;-35
2023/07/13 16:06:55;;;;;;;5.22;2.55;;;16.70;99.90;;;;;;12507236;28;20061;-35
2023/07/13 16:12:58;;;;;;;6.93;2.60;;;16.80;99.90;;;;;;12527241;28;20045;-35
2023/07/13 16:19:04;;;;;;;3.70;2.55;;;17.00;99.90;;;;;;12524624;28;20049;-35
2023/07/13 16:25:25;;;;;;;4.75;2.58;;;17.00;99.90;;;;;;12531002;28;20080;-35
2023/07/13 16:31:34;;;;;;;6.03;2.70;;;17.30;99.90;;;;;;12544320;28;20040;-35
2023/07/13 16:37:37;;;;;;;5.38;2.80;;;17.40;99.90;;;;;;12535940;28;20088;-35
2023/07/13 16:43:59;;;;;;;4.78;2.50;;;17.60;99.90;;;;;;12535951;28;20072;-35
2023/07/13 16:50:03;;;;;;;5.63;3.00;;;18.00;99.90;;;;;;12514132;28;20048;-35
2023/07/13 16:56:12;;;;;;;6.63;2.70;;;18.60;99.90;;;;;;12518428;28;20401;-35
2023/07/13 17:02:35;;;;;;;4.47;2.40;;;18.60;99.90;;;;;;12514956;28;20564;-35
2023/07/13 17:08:38;;;;;;;5.45;3.00;;;18.60;99.90;;;;;;12511880;28;20079;-35
2023/07/13 17:14:40;;;;;;;7.43;3.30;;;18.70;99.90;;;;;;12515252;28;20045;-35
2023/07/13 17:20:44;;;;;;;5.35;2.88;;;18.40;99.90;;;;;;12531030;28;20079;-35
2023/07/13 17:26:48;;;;;;;5.35;3.00;;;19.10;99.90;;;;;;12526490;28;20053;-35
2023/07/13 17:32:55;;;;;;;6.07;2.80;;;19.80;99.90;;;;;;12537151;28;20041;-36
2023/07/13 17:38:57;;;;;;;7.38;2.70;;;19.90;99.90;;;;;;12528053;28;20042;-36
2023/07/13 17:44:59;;;;;;;5.15;2.63;;;20.20;99.90;;;;;;12524076;28;20045;-35
2023/07/13 17:51:01;;;;;;;6.55;2.85;;;19.80;99.90;;;;;;12527121;28;20064;-35
2023/07/13 17:57:04;;;;;;;7.65;3.42;;;19.50;99.90;;;;;;12531602;28;20059;-34
2023/07/13 18:03:14;;;;;;;6.55;2.97;;;19.20;99.90;;;;;;12526424;28;20049;-35
2023/07/13 18:09:20;;;;;;;15.93;3.40;;;18.80;99.90;;;;;;12529314;28;20068;-35
2023/07/13 18:15:26;;;;;;;4.65;2.92;;;18.40;99.90;;;;;;12521390;28;20060;-35
2023/07/13 18:21:31;;;;;;;5.53;3.13;;;18.30;99.90;;;;;;12523934;28;20037;-35
2023/07/13 18:27:33;;;;;;;9.35;3.15;;;18.20;99.90;;;;;;12501149;28;20061;-36
2023/07/13 18:33:35;;;;;;;4.07;2.83;;;18.10;99.90;;;;;;12523448;28;20060;-35
2023/07/13 18:39:37;;;;;;;8.07;3.20;;;18.10;99.90;;;;;;12517518;28;20080;-36
2023/07/13 18:45:40;;;;;;;6.18;3.20;;;18.00;99.90;;;;;;12525050;28;20050;-35
2023/07/13 18:51:42;;;;;;;6.22;3.30;;;17.90;99.90;;;;;;12525647;28;20043;-35
2023/07/13 18:57:44;;;;;;;6.25;3.60;;;17.90;99.90;;;;;;12520296;28;20440;-34
2023/07/13 19:03:50;;;;;;;7.10;3.22;;;18.10;99.90;;;;;;12523658;28;20508;-35
2023/07/13 19:09:53;;;;;;;9.40;3.83;;;17.90;99.90;;;;;;12520440;28;20053;-35
2023/07/13 19:15:56;;;;;;;5.07;3.17;;;17.80;99.90;;;;;;12524095;28;20416;-35
2023/07/13 19:22:01;;;;;;;5.13;2.77;;;17.80;99.90;;;;;;12520183;28;20373;-36
2023/07/13 19:28:24;;;;;;;5.25;2.67;;;17.70;99.90;;;;;;12531470;28;20132;-35
2023/07/13 19:34:27;;;;;;;5.78;2.67;;;17.60;99.90;;;;;;12530411;28;20084;-35
2023/07/13 19:40:29;;;;;;;6.25;2.50;;;17.50;99.90;;;;;;12533073;28;20038;-35
2023/07/13 19:46:34;;;;;;;5.70;2.95;;;17.30;99.90;;;;;;12529736;28;20083;-35
2023/07/13 19:52:43;;;;;;;5.68;2.92;;;17.10;99.90;;;;;;12521078;28;20183;-35
2023/07/13 19:58:45;;;;;;;5.72;3.13;;;17.00;99.90;;;;;;12523942;28;20126;-35
2023/07/13 20:04:50;;;;;;;7.95;2.75;;;16.90;99.90;;;;;;12524243;28;20088;-37
2023/07/13 20:10:54;;;;;;;9.00;3.40;;;16.90;99.90;;;;;;12535666;28;20067;-36
2023/07/13 20:17:01;;;;;;;9.68;3.10;;;16.90;99.90;;;;;;12523409;28;20041;-37
2023/07/13 20:23:29;;;;;;;5.97;2.90;;;17.00;99.90;;;;;;12513017;28;20421;-37
2023/07/13 20:29:31;;;;;;;5.63;2.78;;;17.00;99.90;;;;;;12521182;28;20096;-36
2023/07/13 20:35:34;;;;;;;4.40;2.90;;;17.00;99.90;;;;;;12535782;28;20061;-37
2023/07/13 20:41:39;;;;;;;8.07;3.30;;;17.00;99.90;;;;;;12508002;28;20501;-36
2023/07/13 20:47:41;;;;;;;5.75;3.20;;;16.90;99.90;;;;;;12520181;28;20090;-37
2023/07/13 20:53:45;;;;;;;5.00;3.45;;;16.80;99.90;;;;;;12524048;28;20076;-36
2023/07/13 20:59:53;;;;;;;10.18;4.10;;;16.90;99.90;;;;;;12525084;28;20045;-36
2023/07/13 21:06:06;;;;;;;6.55;4.28;;;16.90;99.90;;;;;;12527190;28;20248;-36
2023/07/13 21:12:08;;;;;;;6.53;4.13;;;16.80;99.90;;;;;;12523529;28;20124;-36
2023/07/13 21:18:19;;;;;;;8.65;4.22;;;16.90;99.90;;;;;;12514352;28;20049;-36
2023/07/13 21:24:21;;;;;;;8.38;4.90;;;16.90;99.90;;;;;;12528533;28;20041;-36
2023/07/13 21:30:33;;;;;;;9.85;4.35;;;16.80;99.90;;;;;;12527061;28;20041;-36
2023/07/13 21:36:36;;;;;;;7.22;4.80;;;16.90;99.90;;;;;;12522499;28;20425;-36
2023/07/13 21:42:38;;;;;;;7.75;5.18;;;16.80;99.90;;;;;;12526151;28;20053;-36
2023/07/13 21:48:40;;;;;;;9.52;5.63;;;16.70;99.90;;;;;;12531063;28;20049;-37
2023/07/13 21:54:42;;;;;;;7.93;5.28;;;16.50;99.90;;;;;;12525903;28;20041;-36
2023/07/13 22:00:45;;;;;;;6.65;4.80;;;16.40;99.90;;;;;;12529280;28;20052;-37
2023/07/13 22:06:47;;;;;;;7.45;4.75;;;16.50;99.90;;;;;;12516541;28;20041;-37
2023/07/13 22:12:49;;;;;;;6.65;4.60;;;16.40;99.90;;;;;;12520522;28;20062;-36
2023/07/13 22:18:54;;;;;;;8.60;5.15;;;16.50;99.90;;;;;;12514704;28;20042;-36
2023/07/13 22:24:56;;;;;;;8.55;4.53;;;16.50;99.90;;;;;;12517787;28;20049;-37
2023/07/13 22:30:59;;;;;;;8.55;4.82;;;16.40;99.90;;;;;;12525951;28;20057;-36
2023/07/13 22:37:01;;;;;;;9.00;5.00;;;16.20;99.90;;;;;;12524663;28;20053;-36
2023/07/13 22:43:17;;;;;;;6.97;4.68;;;16.20;99.90;;;;;;12531680;28;20049;-36
2023/07/13 22:49:28;;;;;;;10.25;5.18;;;16.00;99.90;;;;;;12509001;28;20060;-36
2023/07/13 22:55:31;;;;;;;10.15;4.85;;;16.10;99.90;;;;;;12518923;28;20048;-36
2023/07/13 23:01:35;;;;;;;7.40;4.97;;;16.10;99.90;;;;;;12529601;28;20052;-35
2023/07/13 23:07:38;;;;;;;7.47;4.70;;;15.90;99.90;;;;;;12536716;28;20053;-36
2023/07/13 23:13:40;;;;;;;7.25;4.60;;;15.90;99.90;;;;;;12533190;28;20048;-35
2023/07/13 23:19:42;;;;;;;8.40;5.40;;;15.90;99.90;;;;;;12539618;28;20041;-36
2023/07/13 23:25:45;;;;;;;8.63;5.13;;;15.80;99.90;;;;;;12535414;28;20147;-36
2023/07/13 23:31:47;;;;;;;7.45;5.07;;;15.60;99.90;;;;;;12537144;28;20118;-36
2023/07/13 23:37:49;;;;;;;9.85;5.65;;;15.50;99.90;;;;;;12508912;28;20132;-36
2023/07/13 23:43:51;;;;;;;10.02;5.20;;;15.40;99.90;;;;;;12532800;28;20072;-36
2023/07/13 23:49:55;;;;;;;7.07;5.13;;;15.40;99.90;;;;;;12516545;28;20045;-36
2023/07/13 23:55:57;;;;;;;7.88;5.38;;;15.40;99.90;;;;;;12522954;28;20172;-37
